createdAt,value
2023-07-18T00:02:00.211Z,20.29
2023-07-18T00:05:03.178Z,20.32
2023-07-18T00:08:06.381Z,20.24
2023-07-18T00:11:09.501Z,20.25
2023-07-18T00:14:12.433Z,20.32
2023-07-18T00:17:16.645Z,20.20
2023-07-18T00:20:20.531Z,20.14
2023-07-18T00:23:23.590Z,20.18
2023-07-18T00:26:26.503Z,20.19
2023-07-18T00:29:29.263Z,20.17
2023-07-18T00:32:32.412Z,20.08
2023-07-18T00:35:36.170Z,20.07
2023-07-18T00:38:41.506Z,20.12
2023-07-18T00:41:44.559Z,20.05
2023-07-18T00:44:50.527Z,20.03
2023-07-18T00:47:53.891Z,19.97
2023-07-18T00:50:56.835Z,20.05
2023-07-18T00:54:00.461Z,20.05
2023-07-18T00:57:03.702Z,20.02
2023-07-18T01:00:12.399Z,19.97
2023-07-18T01:03:17.534Z,19.92
2023-07-18T01:06:20.370Z,19.82
2023-07-18T01:09:23.601Z,19.71
2023-07-18T01:12:26.432Z,19.68
2023-07-18T01:15:34.417Z,19.70
2023-07-18T01:18:38.906Z,19.77
2023-07-18T01:21:43.632Z,19.73
2023-07-18T01:24:46.811Z,19.65
2023-07-18T01:27:51.463Z,19.61
2023-07-18T01:30:56.980Z,19.54
2023-07-18T01:33:59.824Z,19.34
2023-07-18T01:37:04.149Z,19.28
2023-07-18T01:40:14.276Z,19.22
2023-07-18T01:43:17.185Z,19.18
2023-07-18T01:46:20.258Z,19.07
2023-07-18T01:49:24.268Z,19.12
2023-07-18T01:52:28.789Z,19.08
2023-07-18T01:55:31.874Z,19.01
2023-07-18T01:58:36.635Z,18.93
2023-07-18T02:01:39.601Z,18.89
2023-07-18T02:04:42.842Z,18.82
2023-07-18T02:07:46.481Z,18.79
2023-07-18T02:10:49.834Z,18.77
2023-07-18T02:13:52.700Z,18.77
2023-07-18T02:16:55.793Z,18.80
2023-07-18T02:19:59.123Z,18.78
2023-07-18T02:23:02.303Z,18.76
2023-07-18T02:26:05.971Z,18.75
2023-07-18T02:29:08.977Z,18.76
2023-07-18T02:32:12.151Z,18.74
2023-07-18T02:35:20.264Z,18.75
2023-07-18T02:38:24.075Z,18.76
2023-07-18T02:41:27.783Z,18.85
2023-07-18T02:44:33.752Z,18.79
2023-07-18T02:47:36.900Z,18.83
2023-07-18T02:50:39.831Z,18.76
2023-07-18T02:53:42.954Z,18.72
2023-07-18T02:56:46.172Z,18.69
2023-07-18T02:59:49.137Z,18.68
2023-07-18T03:02:53.285Z,18.71
2023-07-18T03:05:56.672Z,18.69
2023-07-18T03:08:59.534Z,18.67
2023-07-18T03:12:05.462Z,18.68
2023-07-18T03:15:12.171Z,18.64
2023-07-18T03:18:15.486Z,18.66
2023-07-18T03:21:18.981Z,18.67
2023-07-18T03:24:22.256Z,18.70
2023-07-18T03:27:25.363Z,18.75
2023-07-18T03:30:28.222Z,18.80
2023-07-18T03:33:31.368Z,18.85
2023-07-18T03:36:36.560Z,18.89
2023-07-18T03:39:40.734Z,18.86
2023-07-18T03:42:44.727Z,18.87
2023-07-18T03:45:47.721Z,18.88
2023-07-18T03:48:52.894Z,18.92
2023-07-18T03:51:56.368Z,19.06
2023-07-18T03:54:59.420Z,19.18
2023-07-18T03:58:03.096Z,19.18
2023-07-18T04:01:12.124Z,19.23
2023-07-18T04:04:15.358Z,19.38
2023-07-18T04:07:19.363Z,19.55
2023-07-18T04:10:22.765Z,20.40
2023-07-18T04:13:28.831Z,21.79
2023-07-18T04:16:37.410Z,23.10
2023-07-18T04:19:42.553Z,24.53
2023-07-18T04:22:47.588Z,25.58
2023-07-18T04:25:59.935Z,26.14
2023-07-18T04:29:06.510Z,26.36
2023-07-18T04:32:12.782Z,26.41
2023-07-18T04:35:15.832Z,25.82
2023-07-18T04:38:22.667Z,24.61
2023-07-18T04:41:25.527Z,23.84
2023-07-18T04:44:29.746Z,22.83
2023-07-18T04:47:33.773Z,22.59
2023-07-18T04:50:38.318Z,22.25
2023-07-18T04:53:41.535Z,22.00
2023-07-18T04:56:46.220Z,21.90
2023-07-18T04:59:49.994Z,21.87
2023-07-18T05:02:53.019Z,21.92
2023-07-18T05:05:58.301Z,22.17
2023-07-18T05:09:01.947Z,22.14
2023-07-18T05:12:05.549Z,22.06
2023-07-18T05:15:09.456Z,22.13
2023-07-18T05:18:12.655Z,22.16
2023-07-18T05:21:16.031Z,22.18
2023-07-18T05:24:20.459Z,22.16
2023-07-18T05:27:23.644Z,22.17
2023-07-18T05:30:29.627Z,22.36
2023-07-18T05:33:34.173Z,22.39
2023-07-18T05:36:38.404Z,22.58
2023-07-18T05:39:43.808Z,22.88
2023-07-18T05:42:53.366Z,22.73
2023-07-18T05:45:56.950Z,22.71
2023-07-18T05:49:02.981Z,22.64
2023-07-18T05:52:06.561Z,22.66
2023-07-18T05:55:11.432Z,23.05
2023-07-18T05:58:15.001Z,22.85
2023-07-18T06:01:18.716Z,23.04
2023-07-18T06:04:22.225Z,23.27
2023-07-18T06:07:26.888Z,23.57
2023-07-18T06:10:30.317Z,23.50
2023-07-18T06:13:33.212Z,23.51
2023-07-18T06:16:36.204Z,23.76
2023-07-18T06:19:40.896Z,23.62
2023-07-18T06:22:46.376Z,23.63
2023-07-18T06:25:49.264Z,23.82
2023-07-18T06:28:55.148Z,23.87
2023-07-18T06:31:58.373Z,23.79
2023-07-18T06:35:16.679Z,24.22
2023-07-18T06:38:26.870Z,24.29
2023-07-18T06:41:30.075Z,24.64
2023-07-18T06:44:34.283Z,24.58
2023-07-18T06:47:38.203Z,24.61
2023-07-18T06:50:48.320Z,24.48
2023-07-18T06:53:53.688Z,24.93
2023-07-18T06:56:57.058Z,24.97
2023-07-18T07:00:01.415Z,25.15
2023-07-18T07:03:05.672Z,25.23
2023-07-18T07:06:12.979Z,25.24
2023-07-18T07:09:16.004Z,25.06
2023-07-18T07:12:34.355Z,25.18
2023-07-18T07:15:39.325Z,25.34
2023-07-18T07:18:42.493Z,25.44
2023-07-18T07:21:45.970Z,25.19
2023-07-18T07:24:49.229Z,25.36
2023-07-18T07:27:52.313Z,25.31
2023-07-18T07:30:55.524Z,25.45
2023-07-18T07:33:58.978Z,25.57
2023-07-18T07:37:02.258Z,25.27
2023-07-18T07:40:09.079Z,25.23
2023-07-18T07:43:14.235Z,25.72
2023-07-18T07:46:18.047Z,25.84
2023-07-18T07:49:22.780Z,26.12
2023-07-18T07:52:25.758Z,25.97
2023-07-18T07:55:29.593Z,26.12
2023-07-18T07:58:32.888Z,26.23
2023-07-18T08:01:35.801Z,26.44
2023-07-18T08:04:39.767Z,26.64
2023-07-18T08:07:44.690Z,26.26
2023-07-18T08:10:47.706Z,26.11
2023-07-18T08:13:55.372Z,26.54
2023-07-18T08:16:58.730Z,26.91
2023-07-18T08:20:02.359Z,26.74
2023-07-18T08:23:09.545Z,26.91
2023-07-18T08:26:12.756Z,26.85
2023-07-18T08:29:16.050Z,27.37
2023-07-18T08:32:19.064Z,27.24
2023-07-18T08:35:22.598Z,27.33
2023-07-18T08:38:25.592Z,27.08
2023-07-18T08:41:29.064Z,27.40
2023-07-18T08:44:33.082Z,27.91
2023-07-18T08:47:36.175Z,27.36
2023-07-18T08:50:41.512Z,27.56
2023-07-18T08:53:44.658Z,28.01
2023-07-18T08:56:47.827Z,28.16
2023-07-18T08:59:50.993Z,27.99
2023-07-18T09:02:54.072Z,28.23
2023-07-18T09:05:59.376Z,27.28
2023-07-18T09:09:02.550Z,27.62
2023-07-18T09:12:06.561Z,27.76
2023-07-18T09:15:20.314Z,27.67
2023-07-18T09:18:23.409Z,27.39
2023-07-18T09:21:26.659Z,28.04
2023-07-18T09:24:34.473Z,27.45
2023-07-18T09:27:38.081Z,27.75
2023-07-18T09:30:41.411Z,27.92
2023-07-18T09:33:45.366Z,28.17
2023-07-18T09:37:01.382Z,28.51
2023-07-18T09:40:04.651Z,28.81
2023-07-18T09:43:08.357Z,28.88
2023-07-18T09:46:15.695Z,29.04
2023-07-18T09:49:19.995Z,29.44
2023-07-18T09:52:28.095Z,28.73
2023-07-18T09:55:32.387Z,28.18
2023-07-18T09:58:39.609Z,28.22
2023-07-18T10:01:44.004Z,28.38
2023-07-18T10:04:47.864Z,28.40
2023-07-18T10:07:51.440Z,28.97
2023-07-18T10:11:09.526Z,29.99
2023-07-18T10:14:14.149Z,29.76
2023-07-18T10:17:43.814Z,28.74
2023-07-18T10:20:59.797Z,28.66
2023-07-18T10:24:29.929Z,28.70
2023-07-18T10:27:43.809Z,29.24
2023-07-18T10:30:47.990Z,29.18
2023-07-18T10:34:26.425Z,29.73
2023-07-18T10:37:32.290Z,29.83
2023-07-18T10:40:40.953Z,30.23
2023-07-18T10:43:49.426Z,30.07
2023-07-18T10:46:52.907Z,29.96
2023-07-18T10:49:56.875Z,29.93
2023-07-18T10:53:01.084Z,30.30
2023-07-18T10:56:10.149Z,30.83
2023-07-18T10:59:16.474Z,30.36
2023-07-18T11:02:23.305Z,30.67
2023-07-18T11:05:26.708Z,30.77
2023-07-18T11:08:31.635Z,30.26
2023-07-18T11:11:39.210Z,30.14
2023-07-18T11:14:42.812Z,30.33
2023-07-18T11:17:46.382Z,30.51
2023-07-18T11:20:49.506Z,30.50
2023-07-18T11:23:52.500Z,30.69
2023-07-18T11:27:19.604Z,30.43
2023-07-18T11:30:23.490Z,30.95
2023-07-18T11:33:30.536Z,31.31
2023-07-18T11:36:35.067Z,31.23
2023-07-18T11:39:38.029Z,31.40
2023-07-18T11:42:52.088Z,31.47
2023-07-18T11:45:58.302Z,31.03
2023-07-18T11:49:03.040Z,31.58
2023-07-18T11:52:07.771Z,31.77
2023-07-18T11:55:10.986Z,31.59
2023-07-18T11:58:13.951Z,30.73
2023-07-18T12:01:18.026Z,30.51
2023-07-18T12:04:21.335Z,30.80
2023-07-18T12:07:25.249Z,31.54
2023-07-18T12:10:30.372Z,31.10
2023-07-18T12:13:34.024Z,31.12
2023-07-18T12:16:39.581Z,31.26
2023-07-18T12:19:42.903Z,30.80
2023-07-18T12:22:46.692Z,30.52
2023-07-18T12:25:49.628Z,31.02
2023-07-18T12:28:56.560Z,31.42
2023-07-18T12:31:59.955Z,31.84
2023-07-18T12:35:07.954Z,32.19
2023-07-18T12:38:12.762Z,32.27
2023-07-18T12:41:16.151Z,32.83
2023-07-18T12:44:24.170Z,31.90
2023-07-18T12:47:30.370Z,31.59
2023-07-18T12:50:34.195Z,31.13
2023-07-18T12:53:37.173Z,31.34
2023-07-18T12:56:41.262Z,32.08
2023-07-18T12:59:48.449Z,32.67
2023-07-18T13:02:52.787Z,32.55
2023-07-18T13:05:56.691Z,32.16
2023-07-18T13:09:01.215Z,32.26
2023-07-18T13:12:07.783Z,32.19
2023-07-18T13:15:12.592Z,32.31
2023-07-18T13:18:15.511Z,32.01
2023-07-18T13:21:18.673Z,32.00
2023-07-18T13:24:22.125Z,32.16
2023-07-18T13:27:26.748Z,32.48
2023-07-18T13:30:30.615Z,32.88
2023-07-18T13:33:33.843Z,33.16
2023-07-18T13:36:39.273Z,32.98
2023-07-18T13:39:42.818Z,33.53
2023-07-18T13:42:46.104Z,33.65
2023-07-18T13:45:50.778Z,33.13
2023-07-18T13:48:55.634Z,33.39
2023-07-18T13:51:59.658Z,32.65
2023-07-18T13:55:03.799Z,32.67
2023-07-18T13:58:07.229Z,32.94
2023-07-18T14:01:11.166Z,33.38
2023-07-18T14:04:18.244Z,32.30
2023-07-18T14:07:21.787Z,32.15
2023-07-18T14:10:25.844Z,32.55
2023-07-18T14:13:29.313Z,32.78
2023-07-18T14:16:32.780Z,33.28
2023-07-18T14:19:35.934Z,33.64
2023-07-18T14:22:41.717Z,33.51
2023-07-18T14:25:51.217Z,32.97
2023-07-18T14:28:56.479Z,32.77
2023-07-18T14:31:59.965Z,32.64
2023-07-18T14:35:03.077Z,32.34
2023-07-18T14:38:06.295Z,32.87
2023-07-18T14:41:16.930Z,32.91
2023-07-18T14:44:23.636Z,32.73
2023-07-18T14:47:31.209Z,33.09
2023-07-18T14:50:40.937Z,32.86
2023-07-18T14:53:45.916Z,32.49
2023-07-18T14:56:54.450Z,32.16
2023-07-18T14:59:59.298Z,32.19
2023-07-18T15:03:04.708Z,32.51
2023-07-18T15:06:09.016Z,32.26
2023-07-18T15:09:13.952Z,32.17
2023-07-18T15:12:17.573Z,31.99
2023-07-18T15:15:21.629Z,32.49
2023-07-18T15:18:28.089Z,32.99
2023-07-18T15:21:32.121Z,32.63
2023-07-18T15:24:36.290Z,32.35
2023-07-18T15:27:41.651Z,32.61
2023-07-18T15:30:44.943Z,32.86
2023-07-18T15:33:48.323Z,32.77
2023-07-18T15:36:51.717Z,32.71
2023-07-18T15:39:56.816Z,32.70
2023-07-18T15:43:00.457Z,32.65
2023-07-18T15:46:05.189Z,32.78
2023-07-18T15:49:08.113Z,32.60
2023-07-18T15:52:11.054Z,32.46
2023-07-18T15:55:17.502Z,32.44
2023-07-18T15:58:20.363Z,32.72
2023-07-18T16:01:25.133Z,32.95
2023-07-18T16:04:28.388Z,33.01
2023-07-18T16:07:31.534Z,32.71
2023-07-18T16:10:34.445Z,32.58
2023-07-18T16:13:37.821Z,32.69
2023-07-18T16:16:41.672Z,32.76
2023-07-18T16:19:45.739Z,32.55
2023-07-18T16:22:50.863Z,32.32
2023-07-18T16:25:54.326Z,31.70
2023-07-18T16:28:57.562Z,31.96
2023-07-18T16:32:01.588Z,31.85
2023-07-18T16:35:05.882Z,31.78
2023-07-18T16:38:09.122Z,31.50
2023-07-18T16:41:12.230Z,31.19
2023-07-18T16:44:18.671Z,30.84
2023-07-18T16:47:24.782Z,30.51
2023-07-18T16:50:28.049Z,30.29
2023-07-18T16:53:31.137Z,30.24
2023-07-18T16:56:36.530Z,30.13
2023-07-18T16:59:39.935Z,29.97
2023-07-18T17:02:43.125Z,29.83
2023-07-18T17:05:46.220Z,29.82
2023-07-18T17:08:49.102Z,29.71
2023-07-18T17:11:53.556Z,29.59
2023-07-18T17:14:58.551Z,29.55
2023-07-18T17:18:01.559Z,29.64
2023-07-18T17:21:06.381Z,29.52
2023-07-18T17:24:10.189Z,29.25
2023-07-18T17:27:14.803Z,29.21
2023-07-18T17:30:21.157Z,29.02
2023-07-18T17:33:27.012Z,28.98
2023-07-18T17:36:30.427Z,28.89
2023-07-18T17:39:33.645Z,29.47
2023-07-18T17:42:36.599Z,29.92
2023-07-18T17:45:39.902Z,29.57
2023-07-18T17:48:43.462Z,29.54
2023-07-18T17:51:47.380Z,29.48
2023-07-18T17:54:51.249Z,29.17
2023-07-18T17:57:55.088Z,29.30
2023-07-18T18:00:58.216Z,29.15
2023-07-18T18:04:02.199Z,28.89
2023-07-18T18:07:06.173Z,28.51
2023-07-18T18:10:09.658Z,28.21
2023-07-18T18:13:14.601Z,28.05
2023-07-18T18:16:18.714Z,28.15
2023-07-18T18:19:23.788Z,27.78
2023-07-18T18:22:26.952Z,27.55
2023-07-18T18:25:30.488Z,27.47
2023-07-18T18:28:33.822Z,27.43
2023-07-18T18:31:37.158Z,27.44
2023-07-18T18:34:50.136Z,27.18
2023-07-18T18:38:04.211Z,26.92
2023-07-18T18:41:07.324Z,27.01
2023-07-18T18:44:10.691Z,26.98
2023-07-18T18:47:14.009Z,26.79
2023-07-18T18:50:22.311Z,26.80
2023-07-18T18:53:27.439Z,26.72
2023-07-18T18:56:30.836Z,26.62
2023-07-18T18:59:34.255Z,26.51
2023-07-18T19:02:39.337Z,26.28
2023-07-18T19:05:42.513Z,26.02
2023-07-18T19:08:47.986Z,25.94
2023-07-18T19:11:51.906Z,25.91
2023-07-18T19:14:58.034Z,25.94
2023-07-18T19:18:02.516Z,25.85
2023-07-18T19:21:07.062Z,25.76
2023-07-18T19:24:12.671Z,25.70
2023-07-18T19:27:15.977Z,25.56
2023-07-18T19:30:19.031Z,25.49
2023-07-18T19:33:21.883Z,25.39
2023-07-18T19:36:25.246Z,25.36
2023-07-18T19:39:28.309Z,25.23
2023-07-18T19:42:31.262Z,25.06
2023-07-18T19:45:34.314Z,25.02
2023-07-18T19:48:37.734Z,24.92
2023-07-18T19:51:41.557Z,24.75
2023-07-18T19:54:44.739Z,24.67
2023-07-18T19:57:49.457Z,24.61
2023-07-18T20:00:52.432Z,24.60
2023-07-18T20:03:59.873Z,24.52
2023-07-18T20:07:03.440Z,24.39
2023-07-18T20:10:07.144Z,24.38
2023-07-18T20:13:10.612Z,24.35
2023-07-18T20:16:13.555Z,24.31
2023-07-18T20:19:17.421Z,24.27
2023-07-18T20:22:24.159Z,24.31
2023-07-18T20:25:27.257Z,24.15
2023-07-18T20:28:31.404Z,24.01
2023-07-18T20:31:35.005Z,23.96
2023-07-18T20:34:39.443Z,23.93
2023-07-18T20:37:42.951Z,23.90
2023-07-18T20:40:46.617Z,23.88
2023-07-18T20:43:49.789Z,23.90
2023-07-18T20:46:53.071Z,23.89
2023-07-18T20:49:57.167Z,23.90
2023-07-18T20:53:00.266Z,23.91
2023-07-18T20:56:03.312Z,23.68
2023-07-18T20:59:07.224Z,23.59
2023-07-18T21:02:10.363Z,23.51
2023-07-18T21:05:13.417Z,23.45
2023-07-18T21:08:16.388Z,23.44
2023-07-18T21:11:20.228Z,23.43
2023-07-18T21:14:24.784Z,23.39
2023-07-18T21:17:27.828Z,23.27
2023-07-18T21:20:30.852Z,23.18
2023-07-18T21:23:34.003Z,23.10
2023-07-18T21:26:36.999Z,23.07
2023-07-18T21:29:39.983Z,23.03
2023-07-18T21:32:43.369Z,22.88
2023-07-18T21:35:47.173Z,22.86
2023-07-18T21:38:50.251Z,22.83
2023-07-18T21:41:53.447Z,22.83
2023-07-18T21:44:57.520Z,22.78
2023-07-18T21:48:00.693Z,22.73
2023-07-18T21:51:05.299Z,22.65
2023-07-18T21:54:11.453Z,22.53
2023-07-18T21:57:15.525Z,22.52
2023-07-18T22:00:19.804Z,22.44
2023-07-18T22:03:22.966Z,22.39
2023-07-18T22:06:26.500Z,22.32
2023-07-18T22:09:29.755Z,22.28
2023-07-18T22:12:32.892Z,22.23
2023-07-18T22:15:36.011Z,22.19
2023-07-18T22:18:39.441Z,22.09
2023-07-18T22:21:42.499Z,22.03
2023-07-18T22:24:45.471Z,21.94
2023-07-18T22:27:48.726Z,21.85
2023-07-18T22:30:52.301Z,21.80
2023-07-18T22:33:55.348Z,21.78
2023-07-18T22:36:58.484Z,21.71
2023-07-18T22:40:01.279Z,21.64
2023-07-18T22:43:05.682Z,21.63
2023-07-18T22:46:08.657Z,21.58
2023-07-18T22:49:11.948Z,21.50
2023-07-18T22:52:20.229Z,21.47
2023-07-18T22:55:23.458Z,21.39
2023-07-18T22:58:26.263Z,21.28
2023-07-18T23:01:29.503Z,21.21
2023-07-18T23:04:32.803Z,21.19
2023-07-18T23:07:36.925Z,21.15
2023-07-18T23:10:40.257Z,21.09
2023-07-18T23:13:43.016Z,21.05
2023-07-18T23:16:46.153Z,21.04
2023-07-18T23:19:50.238Z,20.99
2023-07-18T23:22:53.382Z,20.95
2023-07-18T23:25:56.387Z,20.89
2023-07-18T23:28:59.487Z,20.83
2023-07-18T23:32:02.586Z,20.77
2023-07-18T23:35:06.286Z,20.70
2023-07-18T23:38:09.591Z,20.64
2023-07-18T23:41:12.346Z,20.63
2023-07-18T23:44:15.586Z,20.56
2023-07-18T23:47:18.884Z,20.51
2023-07-18T23:50:22.098Z,20.54
2023-07-18T23:53:25.042Z,20.53
2023-07-18T23:56:28.067Z,20.49
2023-07-18T23:59:31.105Z,20.47
